sensor_id;sensor_type;location;lat;lon;timestamp;P1;durP1;ratioP1;P2;durP2;ratioP2
5452;SDS011;2749;53.576;9.822;2022-08-01T00:01:07;17.87;;;16.10;;
5452;SDS011;2749;53.576;9.822;2022-08-01T00:03:33;16.53;;;15.00;;
5452;SDS011;2749;53.576;9.822;2022-08-01T00:05:59;15.90;;;13.80;;
5452;SDS011;2749;53.576;9.822;2022-08-01T00:08:25;18.00;;;16.30;;
5452;SDS011;2749;53.576;9.822;2022-08-01T00:10:51;16.97;;;14.33;;
5452;SDS011;2749;53.576;9.822;2022-08-01T00:13:17;17.17;;;15.43;;
5452;SDS011;2749;53.576;9.822;2022-08-01T00:15:43;16.23;;;14.53;;
5452;SDS011;2749;53.576;9.822;2022-08-01T00:18:09;18.13;;;16.30;;
5452;SDS011;2749;53.576;9.822;2022-08-01T00:20:35;15.37;;;13.70;;
5452;SDS011;2749;53.576;9.822;2022-08-01T00:23:02;17.17;;;15.43;;
5452;SDS011;2749;53.576;9.822;2022-08-01T00:25:28;16.27;;;14.47;;
5452;SDS011;2749;53.576;9.822;2022-08-01T00:27:53;17.93;;;15.83;;
5452;SDS011;2749;53.576;9.822;2022-08-01T00:30:19;18.57;;;16.60;;
5452;SDS011;2749;53.576;9.822;2022-08-01T00:32:45;16.13;;;14.37;;
5452;SDS011;2749;53.576;9.822;2022-08-01T00:35:11;18.07;;;16.23;;
5452;SDS011;2749;53.576;9.822;2022-08-01T00:37:38;16.80;;;15.17;;
5452;SDS011;2749;53.576;9.822;2022-08-01T00:40:04;17.30;;;15.43;;
5452;SDS011;2749;53.576;9.822;2022-08-01T00:42:30;17.90;;;14.97;;
5452;SDS011;2749;53.576;9.822;2022-08-01T00:44:56;24.60;;;15.97;;
5452;SDS011;2749;53.576;9.822;2022-08-01T00:47:22;18.03;;;16.07;;
5452;SDS011;2749;53.576;9.822;2022-08-01T00:49:48;17.23;;;15.40;;
5452;SDS011;2749;53.576;9.822;2022-08-01T00:52:14;21.93;;;15.37;;
5452;SDS011;2749;53.576;9.822;2022-08-01T00:54:40;18.53;;;15.33;;
5452;SDS011;2749;53.576;9.822;2022-08-01T00:57:06;20.27;;;15.70;;
5452;SDS011;2749;53.576;9.822;2022-08-01T00:59:32;25.77;;;17.10;;
5452;SDS011;2749;53.576;9.822;2022-08-01T01:01:58;15.83;;;14.13;;
5452;SDS011;2749;53.576;9.822;2022-08-01T01:04:24;17.13;;;15.17;;
5452;SDS011;2749;53.576;9.822;2022-08-01T01:12:15;18.20;;;15.70;;
5452;SDS011;2749;53.576;9.822;2022-08-01T01:17:37;15.27;;;13.67;;
5452;SDS011;2749;53.576;9.822;2022-08-01T01:20:04;16.83;;;15.13;;
5452;SDS011;2749;53.576;9.822;2022-08-01T01:28:08;17.07;;;15.30;;
5452;SDS011;2749;53.576;9.822;2022-08-01T01:30:35;19.53;;;17.27;;
5452;SDS011;2749;53.576;9.822;2022-08-01T01:33:04;19.77;;;16.67;;
5452;SDS011;2749;53.576;9.822;2022-08-01T01:35:33;22.33;;;18.07;;
5452;SDS011;2749;53.576;9.822;2022-08-01T01:38:01;21.33;;;17.70;;
5452;SDS011;2749;53.576;9.822;2022-08-01T01:40:27;20.97;;;18.80;;
5452;SDS011;2749;53.576;9.822;2022-08-01T01:42:54;19.77;;;17.77;;
5452;SDS011;2749;53.576;9.822;2022-08-01T01:45:21;18.07;;;16.20;;
5452;SDS011;2749;53.576;9.822;2022-08-01T01:47:49;18.03;;;16.10;;
5452;SDS011;2749;53.576;9.822;2022-08-01T01:50:16;19.17;;;15.90;;
5452;SDS011;2749;53.576;9.822;2022-08-01T01:52:43;17.20;;;15.27;;
5452;SDS011;2749;53.576;9.822;2022-08-01T01:55:10;19.10;;;15.10;;
5452;SDS011;2749;53.576;9.822;2022-08-01T01:57:40;15.97;;;14.30;;
5452;SDS011;2749;53.576;9.822;2022-08-01T02:00:07;15.87;;;14.17;;
5452;SDS011;2749;53.576;9.822;2022-08-01T02:02:34;19.97;;;15.30;;
5452;SDS011;2749;53.576;9.822;2022-08-01T02:05:01;17.30;;;15.50;;
5452;SDS011;2749;53.576;9.822;2022-08-01T02:07:28;17.73;;;15.10;;
5452;SDS011;2749;53.576;9.822;2022-08-01T02:09:54;17.53;;;15.20;;
5452;SDS011;2749;53.576;9.822;2022-08-01T02:12:21;16.27;;;14.73;;
5452;SDS011;2749;53.576;9.822;2022-08-01T02:14:48;16.13;;;14.30;;
5452;SDS011;2749;53.576;9.822;2022-08-01T02:17:15;15.77;;;13.87;;
5452;SDS011;2749;53.576;9.822;2022-08-01T02:19:42;15.07;;;13.47;;
5452;SDS011;2749;53.576;9.822;2022-08-01T02:22:16;18.00;;;13.37;;
5452;SDS011;2749;53.576;9.822;2022-08-01T02:27:34;14.47;;;12.83;;
5452;SDS011;2749;53.576;9.822;2022-08-01T02:30:00;14.63;;;13.23;;
5452;SDS011;2749;53.576;9.822;2022-08-01T02:32:28;15.33;;;13.90;;
5452;SDS011;2749;53.576;9.822;2022-08-01T02:34:56;13.53;;;12.20;;
5452;SDS011;2749;53.576;9.822;2022-08-01T02:37:22;17.00;;;14.20;;
5452;SDS011;2749;53.576;9.822;2022-08-01T02:39:50;18.03;;;12.87;;
5452;SDS011;2749;53.576;9.822;2022-08-01T02:42:18;14.63;;;13.20;;
5452;SDS011;2749;53.576;9.822;2022-08-01T02:44:44;14.60;;;11.10;;
5452;SDS011;2749;53.576;9.822;2022-08-01T02:47:11;13.53;;;12.17;;
5452;SDS011;2749;53.576;9.822;2022-08-01T02:49:47;14.20;;;11.90;;
5452;SDS011;2749;53.576;9.822;2022-08-01T02:52:14;12.90;;;11.70;;
5452;SDS011;2749;53.576;9.822;2022-08-01T02:54:42;13.70;;;12.30;;
5452;SDS011;2749;53.576;9.822;2022-08-01T02:57:09;14.73;;;13.20;;
5452;SDS011;2749;53.576;9.822;2022-08-01T02:59:36;14.90;;;13.10;;
5452;SDS011;2749;53.576;9.822;2022-08-01T03:02:03;15.07;;;13.47;;
5452;SDS011;2749;53.576;9.822;2022-08-01T03:04:30;14.33;;;12.83;;
5452;SDS011;2749;53.576;9.822;2022-08-01T03:06:57;13.20;;;12.00;;
5452;SDS011;2749;53.576;9.822;2022-08-01T03:09:25;13.77;;;11.57;;
5452;SDS011;2749;53.576;9.822;2022-08-01T03:11:51;13.93;;;12.27;;
5452;SDS011;2749;53.576;9.822;2022-08-01T03:14:18;11.37;;;9.83;;
5452;SDS011;2749;53.576;9.822;2022-08-01T03:16:46;13.90;;;10.30;;
5452;SDS011;2749;53.576;9.822;2022-08-01T03:19:13;10.73;;;9.70;;
5452;SDS011;2749;53.576;9.822;2022-08-01T03:21:39;11.00;;;9.53;;
5452;SDS011;2749;53.576;9.822;2022-08-01T03:24:06;11.93;;;9.43;;
5452;SDS011;2749;53.576;9.822;2022-08-01T03:26:33;10.40;;;9.40;;
5452;SDS011;2749;53.576;9.822;2022-08-01T03:29:06;10.40;;;9.30;;
5452;SDS011;2749;53.576;9.822;2022-08-01T03:31:35;16.13;;;9.47;;
5452;SDS011;2749;53.576;9.822;2022-08-01T03:34:01;11.20;;;8.97;;
5452;SDS011;2749;53.576;9.822;2022-08-01T03:36:27;8.90;;;8.00;;
5452;SDS011;2749;53.576;9.822;2022-08-01T03:38:56;9.27;;;7.80;;
5452;SDS011;2749;53.576;9.822;2022-08-01T03:41:23;8.77;;;8.03;;
5452;SDS011;2749;53.576;9.822;2022-08-01T03:43:52;8.47;;;7.67;;
5452;SDS011;2749;53.576;9.822;2022-08-01T03:46:21;11.70;;;9.47;;
5452;SDS011;2749;53.576;9.822;2022-08-01T03:48:48;7.53;;;6.80;;
5452;SDS011;2749;53.576;9.822;2022-08-01T03:51:14;9.43;;;7.80;;
5452;SDS011;2749;53.576;9.822;2022-08-01T03:53:41;7.93;;;7.10;;
5452;SDS011;2749;53.576;9.822;2022-08-01T03:56:08;9.00;;;7.13;;
5452;SDS011;2749;53.576;9.822;2022-08-01T03:58:36;12.10;;;7.20;;
5452;SDS011;2749;53.576;9.822;2022-08-01T04:01:04;6.80;;;5.80;;
5452;SDS011;2749;53.576;9.822;2022-08-01T04:03:31;6.93;;;6.20;;
5452;SDS011;2749;53.576;9.822;2022-08-01T04:05:57;7.07;;;6.40;;
5452;SDS011;2749;53.576;9.822;2022-08-01T04:08:33;7.17;;;6.43;;
5452;SDS011;2749;53.576;9.822;2022-08-01T04:10:59;6.60;;;6.00;;
5452;SDS011;2749;53.576;9.822;2022-08-01T04:13:25;7.83;;;5.80;;
5452;SDS011;2749;53.576;9.822;2022-08-01T04:15:51;8.17;;;6.70;;
5452;SDS011;2749;53.576;9.822;2022-08-01T04:18:17;7.50;;;5.30;;
5452;SDS011;2749;53.576;9.822;2022-08-01T04:20:43;6.17;;;5.57;;
5452;SDS011;2749;53.576;9.822;2022-08-01T04:23:08;6.80;;;5.43;;
5452;SDS011;2749;53.576;9.822;2022-08-01T04:25:35;6.87;;;5.60;;
5452;SDS011;2749;53.576;9.822;2022-08-01T04:28:04;5.53;;;5.03;;
5452;SDS011;2749;53.576;9.822;2022-08-01T04:30:33;5.43;;;4.93;;
5452;SDS011;2749;53.576;9.822;2022-08-01T04:33:00;8.00;;;4.83;;
5452;SDS011;2749;53.576;9.822;2022-08-01T04:35:26;4.87;;;4.47;;
5452;SDS011;2749;53.576;9.822;2022-08-01T04:37:53;6.50;;;5.03;;
5452;SDS011;2749;53.576;9.822;2022-08-01T04:40:19;9.30;;;5.07;;
5452;SDS011;2749;53.576;9.822;2022-08-01T04:42:47;4.60;;;4.20;;
5452;SDS011;2749;53.576;9.822;2022-08-01T04:45:13;5.27;;;4.00;;
5452;SDS011;2749;53.576;9.822;2022-08-01T04:47:39;3.97;;;3.67;;
5452;SDS011;2749;53.576;9.822;2022-08-01T04:50:06;4.00;;;3.60;;
5452;SDS011;2749;53.576;9.822;2022-08-01T04:52:36;4.43;;;4.10;;
5452;SDS011;2749;53.576;9.822;2022-08-01T04:55:03;4.23;;;3.87;;
5452;SDS011;2749;53.576;9.822;2022-08-01T04:57:30;4.73;;;4.27;;
5452;SDS011;2749;53.576;9.822;2022-08-01T04:59:57;6.20;;;5.70;;
5452;SDS011;2749;53.576;9.822;2022-08-01T05:02:23;6.73;;;6.23;;
5452;SDS011;2749;53.576;9.822;2022-08-01T05:04:49;6.47;;;5.97;;
5452;SDS011;2749;53.576;9.822;2022-08-01T05:07:15;7.90;;;7.30;;
5452;SDS011;2749;53.576;9.822;2022-08-01T05:09:41;7.40;;;6.73;;
5452;SDS011;2749;53.576;9.822;2022-08-01T05:12:08;8.83;;;8.03;;
5452;SDS011;2749;53.576;9.822;2022-08-01T05:14:34;8.90;;;8.10;;
5452;SDS011;2749;53.576;9.822;2022-08-01T05:17:01;9.53;;;8.73;;
5452;SDS011;2749;53.576;9.822;2022-08-01T05:19:32;9.27;;;8.37;;
5452;SDS011;2749;53.576;9.822;2022-08-01T05:21:58;9.23;;;7.90;;
5452;SDS011;2749;53.576;9.822;2022-08-01T05:24:25;10.53;;;8.30;;
5452;SDS011;2749;53.576;9.822;2022-08-01T05:26:53;8.67;;;7.90;;
5452;SDS011;2749;53.576;9.822;2022-08-01T05:29:19;8.30;;;7.40;;
5452;SDS011;2749;53.576;9.822;2022-08-01T05:31:45;14.53;;;6.40;;
5452;SDS011;2749;53.576;9.822;2022-08-01T05:34:11;7.60;;;5.47;;
5452;SDS011;2749;53.576;9.822;2022-08-01T05:36:36;6.80;;;5.60;;
5452;SDS011;2749;53.576;9.822;2022-08-01T05:39:03;5.00;;;4.50;;
5452;SDS011;2749;53.576;9.822;2022-08-01T05:41:29;6.17;;;3.80;;
5452;SDS011;2749;53.576;9.822;2022-08-01T05:43:55;5.70;;;3.60;;
5452;SDS011;2749;53.576;9.822;2022-08-01T05:46:21;7.47;;;3.90;;
5452;SDS011;2749;53.576;9.822;2022-08-01T05:48:47;5.07;;;3.17;;
5452;SDS011;2749;53.576;9.822;2022-08-01T05:51:13;3.20;;;2.97;;
5452;SDS011;2749;53.576;9.822;2022-08-01T05:53:39;4.33;;;3.30;;
5452;SDS011;2749;53.576;9.822;2022-08-01T05:56:05;3.23;;;2.97;;
5452;SDS011;2749;53.576;9.822;2022-08-01T05:58:31;5.93;;;3.47;;
5452;SDS011;2749;53.576;9.822;2022-08-01T06:00:57;5.90;;;4.33;;
5452;SDS011;2749;53.576;9.822;2022-08-01T06:03:23;5.50;;;4.97;;
5452;SDS011;2749;53.576;9.822;2022-08-01T06:05:51;6.40;;;5.43;;
5452;SDS011;2749;53.576;9.822;2022-08-01T06:08:18;8.97;;;6.80;;
5452;SDS011;2749;53.576;9.822;2022-08-01T06:10:43;9.13;;;8.33;;
5452;SDS011;2749;53.576;9.822;2022-08-01T06:13:09;6.93;;;6.23;;
5452;SDS011;2749;53.576;9.822;2022-08-01T06:15:35;10.43;;;5.90;;
5452;SDS011;2749;53.576;9.822;2022-08-01T06:18:01;6.13;;;5.53;;
5452;SDS011;2749;53.576;9.822;2022-08-01T06:20:28;7.90;;;5.37;;
5452;SDS011;2749;53.576;9.822;2022-08-01T06:22:54;4.60;;;3.97;;
5452;SDS011;2749;53.576;9.822;2022-08-01T06:25:20;7.60;;;4.13;;
5452;SDS011;2749;53.576;9.822;2022-08-01T06:27:46;6.73;;;4.53;;
5452;SDS011;2749;53.576;9.822;2022-08-01T06:30:12;4.27;;;3.80;;
5452;SDS011;2749;53.576;9.822;2022-08-01T06:32:38;4.50;;;3.83;;
5452;SDS011;2749;53.576;9.822;2022-08-01T06:35:04;7.60;;;4.10;;
5452;SDS011;2749;53.576;9.822;2022-08-01T06:37:31;8.90;;;4.03;;
5452;SDS011;2749;53.576;9.822;2022-08-01T06:40:01;4.50;;;3.47;;
5452;SDS011;2749;53.576;9.822;2022-08-01T06:42:27;6.80;;;3.17;;
5452;SDS011;2749;53.576;9.822;2022-08-01T06:44:53;6.93;;;3.80;;
5452;SDS011;2749;53.576;9.822;2022-08-01T06:47:19;7.77;;;3.87;;
5452;SDS011;2749;53.576;9.822;2022-08-01T06:49:44;8.17;;;3.73;;
5452;SDS011;2749;53.576;9.822;2022-08-01T06:52:10;6.17;;;4.20;;
5452;SDS011;2749;53.576;9.822;2022-08-01T06:54:36;8.87;;;5.80;;
5452;SDS011;2749;53.576;9.822;2022-08-01T06:57:05;8.03;;;6.40;;
5452;SDS011;2749;53.576;9.822;2022-08-01T06:59:31;10.70;;;6.50;;
5452;SDS011;2749;53.576;9.822;2022-08-01T07:01:57;7.10;;;6.43;;
5452;SDS011;2749;53.576;9.822;2022-08-01T07:04:23;11.43;;;7.90;;
5452;SDS011;2749;53.576;9.822;2022-08-01T07:06:49;9.73;;;6.73;;
5452;SDS011;2749;53.576;9.822;2022-08-01T07:09:15;11.80;;;6.30;;
5452;SDS011;2749;53.576;9.822;2022-08-01T07:11:41;8.60;;;6.73;;
5452;SDS011;2749;53.576;9.822;2022-08-01T07:14:07;10.70;;;7.80;;
5452;SDS011;2749;53.576;9.822;2022-08-01T07:16:33;11.00;;;7.90;;
5452;SDS011;2749;53.576;9.822;2022-08-01T07:18:59;13.40;;;9.27;;
5452;SDS011;2749;53.576;9.822;2022-08-01T07:21:25;18.73;;;9.30;;
5452;SDS011;2749;53.576;9.822;2022-08-01T07:23:50;18.57;;;7.30;;
5452;SDS011;2749;53.576;9.822;2022-08-01T07:26:16;16.13;;;7.30;;
5452;SDS011;2749;53.576;9.822;2022-08-01T07:28:42;16.47;;;6.80;;
5452;SDS011;2749;53.576;9.822;2022-08-01T07:31:08;12.20;;;6.63;;
5452;SDS011;2749;53.576;9.822;2022-08-01T07:33:34;12.43;;;6.30;;
5452;SDS011;2749;53.576;9.822;2022-08-01T07:36:00;8.17;;;5.43;;
5452;SDS011;2749;53.576;9.822;2022-08-01T07:38:26;12.07;;;5.70;;
5452;SDS011;2749;53.576;9.822;2022-08-01T07:40:52;12.47;;;5.90;;
5452;SDS011;2749;53.576;9.822;2022-08-01T07:43:19;11.03;;;5.30;;
5452;SDS011;2749;53.576;9.822;2022-08-01T07:45:45;20.90;;;5.77;;
5452;SDS011;2749;53.576;9.822;2022-08-01T07:48:11;8.43;;;5.57;;
5452;SDS011;2749;53.576;9.822;2022-08-01T07:50:37;15.30;;;5.17;;
5452;SDS011;2749;53.576;9.822;2022-08-01T07:53:03;9.30;;;3.80;;
5452;SDS011;2749;53.576;9.822;2022-08-01T07:55:29;11.63;;;3.37;;
5452;SDS011;2749;53.576;9.822;2022-08-01T07:57:55;6.00;;;2.97;;
5452;SDS011;2749;53.576;9.822;2022-08-01T08:00:21;5.80;;;2.87;;
5452;SDS011;2749;53.576;9.822;2022-08-01T08:02:48;4.03;;;2.20;;
5452;SDS011;2749;53.576;9.822;2022-08-01T08:05:14;6.13;;;2.93;;
5452;SDS011;2749;53.576;9.822;2022-08-01T08:07:40;8.30;;;2.70;;
5452;SDS011;2749;53.576;9.822;2022-08-01T08:10:06;6.20;;;2.23;;
5452;SDS011;2749;53.576;9.822;2022-08-01T08:12:32;7.13;;;2.13;;
5452;SDS011;2749;53.576;9.822;2022-08-01T08:14:58;11.63;;;3.40;;
5452;SDS011;2749;53.576;9.822;2022-08-01T08:17:25;8.37;;;3.17;;
5452;SDS011;2749;53.576;9.822;2022-08-01T08:19:51;3.93;;;2.47;;
5452;SDS011;2749;53.576;9.822;2022-08-01T08:22:17;5.70;;;2.60;;
5452;SDS011;2749;53.576;9.822;2022-08-01T08:24:43;14.43;;;2.73;;
5452;SDS011;2749;53.576;9.822;2022-08-01T08:27:09;3.87;;;2.00;;
5452;SDS011;2749;53.576;9.822;2022-08-01T08:29:36;6.20;;;2.90;;
5452;SDS011;2749;53.576;9.822;2022-08-01T08:32:02;5.70;;;2.23;;
5452;SDS011;2749;53.576;9.822;2022-08-01T08:34:28;4.90;;;2.77;;
5452;SDS011;2749;53.576;9.822;2022-08-01T08:36:55;10.33;;;3.37;;
5452;SDS011;2749;53.576;9.822;2022-08-01T08:39:21;3.97;;;2.50;;
5452;SDS011;2749;53.576;9.822;2022-08-01T08:41:47;14.00;;;4.93;;
5452;SDS011;2749;53.576;9.822;2022-08-01T08:44:13;4.83;;;2.90;;
5452;SDS011;2749;53.576;9.822;2022-08-01T08:46:42;7.80;;;2.90;;
5452;SDS011;2749;53.576;9.822;2022-08-01T08:49:09;6.83;;;3.33;;
5452;SDS011;2749;53.576;9.822;2022-08-01T08:51:37;5.03;;;3.13;;
5452;SDS011;2749;53.576;9.822;2022-08-01T08:54:04;8.03;;;3.63;;
5452;SDS011;2749;53.576;9.822;2022-08-01T08:56:31;7.63;;;3.30;;
5452;SDS011;2749;53.576;9.822;2022-08-01T08:58:59;8.10;;;3.23;;
5452;SDS011;2749;53.576;9.822;2022-08-01T09:01:25;7.20;;;3.00;;
5452;SDS011;2749;53.576;9.822;2022-08-01T09:03:51;12.00;;;4.07;;
5452;SDS011;2749;53.576;9.822;2022-08-01T09:06:17;7.03;;;4.37;;
5452;SDS011;2749;53.576;9.822;2022-08-01T09:08:43;8.17;;;4.93;;
5452;SDS011;2749;53.576;9.822;2022-08-01T09:11:09;10.70;;;4.50;;
5452;SDS011;2749;53.576;9.822;2022-08-01T09:13:35;10.70;;;3.73;;
5452;SDS011;2749;53.576;9.822;2022-08-01T09:16:01;9.23;;;4.27;;
5452;SDS011;2749;53.576;9.822;2022-08-01T09:21:12;13.50;;;5.17;;
5452;SDS011;2749;53.576;9.822;2022-08-01T09:23:46;13.30;;;4.93;;
5452;SDS011;2749;53.576;9.822;2022-08-01T09:26:14;10.23;;;4.33;;
5452;SDS011;2749;53.576;9.822;2022-08-01T09:28:41;9.50;;;4.47;;
5452;SDS011;2749;53.576;9.822;2022-08-01T09:31:17;6.13;;;4.40;;
5452;SDS011;2749;53.576;9.822;2022-08-01T09:33:50;13.90;;;5.37;;
5452;SDS011;2749;53.576;9.822;2022-08-01T09:36:17;8.53;;;5.00;;
5452;SDS011;2749;53.576;9.822;2022-08-01T09:38:43;6.57;;;4.53;;
5452;SDS011;2749;53.576;9.822;2022-08-01T09:41:09;7.80;;;4.80;;
5452;SDS011;2749;53.576;9.822;2022-08-01T09:43:36;6.40;;;4.60;;
5452;SDS011;2749;53.576;9.822;2022-08-01T09:46:08;5.20;;;4.70;;
5452;SDS011;2749;53.576;9.822;2022-08-01T09:48:35;12.13;;;5.53;;
5452;SDS011;2749;53.576;9.822;2022-08-01T09:51:04;8.03;;;4.80;;
5452;SDS011;2749;53.576;9.822;2022-08-01T09:53:39;9.80;;;4.87;;
5452;SDS011;2749;53.576;9.822;2022-08-01T09:56:09;6.90;;;4.03;;
5452;SDS011;2749;53.576;9.822;2022-08-01T09:58:48;11.03;;;4.90;;
5452;SDS011;2749;53.576;9.822;2022-08-01T10:01:14;7.23;;;4.10;;
5452;SDS011;2749;53.576;9.822;2022-08-01T10:03:40;9.50;;;3.70;;
5452;SDS011;2749;53.576;9.822;2022-08-01T10:06:21;13.40;;;4.37;;
5452;SDS011;2749;53.576;9.822;2022-08-01T10:08:47;7.70;;;3.20;;
5452;SDS011;2749;53.576;9.822;2022-08-01T10:11:14;4.67;;;2.87;;
5452;SDS011;2749;53.576;9.822;2022-08-01T10:13:40;9.53;;;2.90;;
5452;SDS011;2749;53.576;9.822;2022-08-01T10:16:06;9.43;;;2.60;;
5452;SDS011;2749;53.576;9.822;2022-08-01T10:18:32;14.23;;;2.70;;
5452;SDS011;2749;53.576;9.822;2022-08-01T10:20:59;10.53;;;2.87;;
5452;SDS011;2749;53.576;9.822;2022-08-01T10:23:26;5.27;;;2.63;;
5452;SDS011;2749;53.576;9.822;2022-08-01T10:25:53;4.50;;;2.17;;
5452;SDS011;2749;53.576;9.822;2022-08-01T10:28:19;4.43;;;2.20;;
5452;SDS011;2749;53.576;9.822;2022-08-01T10:30:45;10.53;;;3.27;;
5452;SDS011;2749;53.576;9.822;2022-08-01T10:33:13;6.50;;;2.87;;
5452;SDS011;2749;53.576;9.822;2022-08-01T10:35:39;10.77;;;2.23;;
5452;SDS011;2749;53.576;9.822;2022-08-01T10:38:05;6.60;;;3.30;;
5452;SDS011;2749;53.576;9.822;2022-08-01T10:40:31;5.93;;;2.47;;
5452;SDS011;2749;53.576;9.822;2022-08-01T10:42:58;6.37;;;2.83;;
5452;SDS011;2749;53.576;9.822;2022-08-01T10:45:24;5.90;;;2.00;;
5452;SDS011;2749;53.576;9.822;2022-08-01T10:47:56;4.90;;;1.90;;
5452;SDS011;2749;53.576;9.822;2022-08-01T10:53:18;5.37;;;2.37;;
5452;SDS011;2749;53.576;9.822;2022-08-01T10:55:46;3.60;;;2.73;;
5452;SDS011;2749;53.576;9.822;2022-08-01T10:58:13;6.97;;;2.37;;
5452;SDS011;2749;53.576;9.822;2022-08-01T11:00:39;8.60;;;1.90;;
5452;SDS011;2749;53.576;9.822;2022-08-01T11:03:05;6.63;;;1.97;;
5452;SDS011;2749;53.576;9.822;2022-08-01T11:05:31;9.33;;;2.33;;
5452;SDS011;2749;53.576;9.822;2022-08-01T11:07:58;7.20;;;2.97;;
5452;SDS011;2749;53.576;9.822;2022-08-01T11:10:32;8.10;;;2.77;;
5452;SDS011;2749;53.576;9.822;2022-08-01T11:13:00;8.93;;;3.80;;
5452;SDS011;2749;53.576;9.822;2022-08-01T11:15:28;2.80;;;2.00;;
5452;SDS011;2749;53.576;9.822;2022-08-01T11:17:55;5.20;;;2.43;;
5452;SDS011;2749;53.576;9.822;2022-08-01T11:20:23;5.77;;;2.13;;
5452;SDS011;2749;53.576;9.822;2022-08-01T11:30:46;5.70;;;2.17;;
5452;SDS011;2749;53.576;9.822;2022-08-01T11:33:13;6.80;;;2.23;;
5452;SDS011;2749;53.576;9.822;2022-08-01T11:38:24;11.20;;;2.90;;
5452;SDS011;2749;53.576;9.822;2022-08-01T11:41:10;8.70;;;2.50;;
5452;SDS011;2749;53.576;9.822;2022-08-01T11:49:22;7.13;;;2.23;;
5452;SDS011;2749;53.576;9.822;2022-08-01T11:51:49;7.03;;;2.17;;
5452;SDS011;2749;53.576;9.822;2022-08-01T11:54:15;6.53;;;2.10;;
5452;SDS011;2749;53.576;9.822;2022-08-01T11:56:41;6.57;;;1.90;;
5452;SDS011;2749;53.576;9.822;2022-08-01T11:59:07;6.77;;;1.70;;
5452;SDS011;2749;53.576;9.822;2022-08-01T12:01:33;6.60;;;2.10;;
5452;SDS011;2749;53.576;9.822;2022-08-01T12:03:59;5.60;;;2.13;;
5452;SDS011;2749;53.576;9.822;2022-08-01T12:06:28;3.57;;;1.83;;
5452;SDS011;2749;53.576;9.822;2022-08-01T12:08:54;9.73;;;1.90;;
5452;SDS011;2749;53.576;9.822;2022-08-01T12:11:39;5.50;;;2.00;;
5452;SDS011;2749;53.576;9.822;2022-08-01T12:14:05;7.87;;;2.10;;
5452;SDS011;2749;53.576;9.822;2022-08-01T12:16:32;7.23;;;2.20;;
5452;SDS011;2749;53.576;9.822;2022-08-01T12:18:58;4.30;;;2.03;;
5452;SDS011;2749;53.576;9.822;2022-08-01T12:21:24;10.30;;;2.93;;
5452;SDS011;2749;53.576;9.822;2022-08-01T12:24:00;3.07;;;1.93;;
5452;SDS011;2749;53.576;9.822;2022-08-01T12:26:39;4.43;;;1.70;;
5452;SDS011;2749;53.576;9.822;2022-08-01T12:29:04;7.47;;;2.20;;
5452;SDS011;2749;53.576;9.822;2022-08-01T12:31:31;7.63;;;2.40;;
5452;SDS011;2749;53.576;9.822;2022-08-01T12:33:57;7.80;;;2.10;;
5452;SDS011;2749;53.576;9.822;2022-08-01T12:36:27;3.77;;;1.63;;
5452;SDS011;2749;53.576;9.822;2022-08-01T12:38:53;6.13;;;2.00;;
5452;SDS011;2749;53.576;9.822;2022-08-01T12:41:21;6.13;;;2.27;;
5452;SDS011;2749;53.576;9.822;2022-08-01T12:43:47;7.70;;;2.23;;
5452;SDS011;2749;53.576;9.822;2022-08-01T12:46:13;6.00;;;1.80;;
5452;SDS011;2749;53.576;9.822;2022-08-01T12:48:42;2.60;;;2.10;;
5452;SDS011;2749;53.576;9.822;2022-08-01T12:51:08;5.23;;;1.73;;
5452;SDS011;2749;53.576;9.822;2022-08-01T12:53:36;4.17;;;1.83;;
5452;SDS011;2749;53.576;9.822;2022-08-01T12:56:02;6.80;;;1.73;;
5452;SDS011;2749;53.576;9.822;2022-08-01T12:58:32;8.33;;;1.93;;
5452;SDS011;2749;53.576;9.822;2022-08-01T13:01:05;8.47;;;1.77;;
5452;SDS011;2749;53.576;9.822;2022-08-01T13:03:31;3.53;;;1.47;;
5452;SDS011;2749;53.576;9.822;2022-08-01T13:05:57;5.27;;;1.90;;
5452;SDS011;2749;53.576;9.822;2022-08-01T13:08:30;5.80;;;2.10;;
5452;SDS011;2749;53.576;9.822;2022-08-01T13:11:00;5.43;;;1.80;;
5452;SDS011;2749;53.576;9.822;2022-08-01T13:13:34;5.20;;;2.20;;
5452;SDS011;2749;53.576;9.822;2022-08-01T13:16:03;5.07;;;1.67;;
5452;SDS011;2749;53.576;9.822;2022-08-01T13:18:31;9.57;;;2.93;;
5452;SDS011;2749;53.576;9.822;2022-08-01T13:21:09;5.20;;;1.70;;
5452;SDS011;2749;53.576;9.822;2022-08-01T13:23:36;4.43;;;1.63;;
5452;SDS011;2749;53.576;9.822;2022-08-01T13:26:03;3.00;;;1.57;;
5452;SDS011;2749;53.576;9.822;2022-08-01T13:28:29;4.90;;;1.47;;
5452;SDS011;2749;53.576;9.822;2022-08-01T13:31:00;7.03;;;1.87;;
5452;SDS011;2749;53.576;9.822;2022-08-01T13:33:27;4.60;;;1.40;;
5452;SDS011;2749;53.576;9.822;2022-08-01T13:35:54;8.30;;;2.20;;
5452;SDS011;2749;53.576;9.822;2022-08-01T13:38:20;3.40;;;1.37;;
5452;SDS011;2749;53.576;9.822;2022-08-01T13:41:07;2.27;;;1.60;;
5452;SDS011;2749;53.576;9.822;2022-08-01T13:43:33;4.50;;;1.60;;
5452;SDS011;2749;53.576;9.822;2022-08-01T13:46:00;6.47;;;1.77;;
5452;SDS011;2749;53.576;9.822;2022-08-01T13:48:28;5.20;;;1.57;;
5452;SDS011;2749;53.576;9.822;2022-08-01T13:50:54;3.33;;;1.60;;
5452;SDS011;2749;53.576;9.822;2022-08-01T13:53:20;6.90;;;2.10;;
5452;SDS011;2749;53.576;9.822;2022-08-01T13:55:46;3.63;;;1.33;;
5452;SDS011;2749;53.576;9.822;2022-08-01T13:58:12;3.40;;;1.80;;
5452;SDS011;2749;53.576;9.822;2022-08-01T14:00:38;2.53;;;1.40;;
5452;SDS011;2749;53.576;9.822;2022-08-01T14:03:04;7.20;;;1.77;;
5452;SDS011;2749;53.576;9.822;2022-08-01T14:05:30;6.00;;;1.70;;
5452;SDS011;2749;53.576;9.822;2022-08-01T14:07:56;3.20;;;1.17;;
5452;SDS011;2749;53.576;9.822;2022-08-01T14:10:22;3.53;;;1.87;;
5452;SDS011;2749;53.576;9.822;2022-08-01T14:12:48;5.23;;;1.67;;
5452;SDS011;2749;53.576;9.822;2022-08-01T14:15:15;4.03;;;1.30;;
5452;SDS011;2749;53.576;9.822;2022-08-01T14:17:41;6.20;;;1.70;;
5452;SDS011;2749;53.576;9.822;2022-08-01T14:20:07;4.47;;;2.90;;
5452;SDS011;2749;53.576;9.822;2022-08-01T14:22:33;6.80;;;1.87;;
5452;SDS011;2749;53.576;9.822;2022-08-01T14:24:59;8.60;;;1.87;;
5452;SDS011;2749;53.576;9.822;2022-08-01T14:27:25;4.40;;;1.80;;
5452;SDS011;2749;53.576;9.822;2022-08-01T14:29:51;3.53;;;1.97;;
5452;SDS011;2749;53.576;9.822;2022-08-01T14:32:17;7.87;;;1.87;;
5452;SDS011;2749;53.576;9.822;2022-08-01T14:34:43;3.50;;;1.50;;
5452;SDS011;2749;53.576;9.822;2022-08-01T14:37:09;7.50;;;1.67;;
5452;SDS011;2749;53.576;9.822;2022-08-01T14:39:34;2.40;;;1.70;;
5452;SDS011;2749;53.576;9.822;2022-08-01T14:42:00;5.23;;;1.90;;
5452;SDS011;2749;53.576;9.822;2022-08-01T14:44:26;1.97;;;1.27;;
5452;SDS011;2749;53.576;9.822;2022-08-01T14:46:52;8.53;;;1.70;;
5452;SDS011;2749;53.576;9.822;2022-08-01T14:49:19;9.63;;;1.63;;
5452;SDS011;2749;53.576;9.822;2022-08-01T14:51:44;2.90;;;1.30;;
5452;SDS011;2749;53.576;9.822;2022-08-01T14:54:10;5.77;;;1.80;;
5452;SDS011;2749;53.576;9.822;2022-08-01T14:56:36;2.27;;;1.10;;
5452;SDS011;2749;53.576;9.822;2022-08-01T14:59:02;5.17;;;1.80;;
5452;SDS011;2749;53.576;9.822;2022-08-01T15:01:28;2.93;;;1.70;;
5452;SDS011;2749;53.576;9.822;2022-08-01T15:03:54;6.40;;;1.80;;
5452;SDS011;2749;53.576;9.822;2022-08-01T15:06:20;3.43;;;1.50;;
5452;SDS011;2749;53.576;9.822;2022-08-01T15:08:46;5.93;;;2.17;;
5452;SDS011;2749;53.576;9.822;2022-08-01T15:11:12;8.03;;;1.60;;
5452;SDS011;2749;53.576;9.822;2022-08-01T15:13:38;3.37;;;1.90;;
5452;SDS011;2749;53.576;9.822;2022-08-01T15:16:04;5.50;;;2.07;;
5452;SDS011;2749;53.576;9.822;2022-08-01T15:18:30;3.70;;;2.13;;
5452;SDS011;2749;53.576;9.822;2022-08-01T15:20:56;5.73;;;1.83;;
5452;SDS011;2749;53.576;9.822;2022-08-01T15:23:22;2.97;;;1.50;;
5452;SDS011;2749;53.576;9.822;2022-08-01T15:25:48;5.37;;;1.63;;
5452;SDS011;2749;53.576;9.822;2022-08-01T15:28:14;6.23;;;1.60;;
5452;SDS011;2749;53.576;9.822;2022-08-01T15:30:40;4.73;;;1.70;;
5452;SDS011;2749;53.576;9.822;2022-08-01T15:33:06;3.43;;;2.00;;
5452;SDS011;2749;53.576;9.822;2022-08-01T15:35:32;4.50;;;2.00;;
5452;SDS011;2749;53.576;9.822;2022-08-01T15:37:58;3.27;;;1.50;;
5452;SDS011;2749;53.576;9.822;2022-08-01T15:40:24;2.70;;;1.83;;
5452;SDS011;2749;53.576;9.822;2022-08-01T15:42:51;4.43;;;2.17;;
5452;SDS011;2749;53.576;9.822;2022-08-01T15:45:17;6.30;;;2.03;;